Time;durP1;ratioP1;P1;durP2;ratioP2;P2;SDS_P1;SDS_P2;PMS_P1;PMS_P2;Temp;Humidity;BMP_temperature;BMP_pressure;BME280_temperature;BME280_humidity;BME280_pressure;Samples;Min_cycle;Max_cycle;Signal;HPM_P1;HPM_P2
2021/12/30 00:02:04;;;;;;;2.63;1.23;;;10.50;91.40;;;8.94;100.00;95700.25;4960765;28;20066;-68
2021/12/30 00:04:30;;;;;;;2.38;1.50;;;10.60;91.50;;;8.96;100.00;95703.50;4964366;28;20040;-68
2021/12/30 00:06:56;;;;;;;1.70;1.42;;;10.50;91.60;;;8.97;100.00;95715.59;4965779;28;20067;-68
2021/12/30 00:09:22;;;;;;;2.08;1.40;;;10.60;91.60;;;8.99;100.00;95718.84;4936133;28;20031;-68
2021/12/30 00:11:48;;;;;;;1.90;1.52;;;10.60;91.60;;;9.01;100.00;95714.22;4984651;28;20452;-68
2021/12/30 00:14:14;;;;;;;1.42;1.30;;;10.60;91.60;;;9.02;100.00;95723.72;4979597;28;20446;-67
2021/12/30 00:16:40;;;;;;;2.05;1.40;;;10.60;91.50;;;9.04;100.00;95719.09;4980156;28;20042;-68
2021/12/30 00:19:06;;;;;;;1.38;1.23;;;10.60;91.60;;;9.07;100.00;95731.84;4964704;28;20053;-68
2021/12/30 00:21:31;;;;;;;1.88;1.52;;;10.60;91.50;;;9.08;100.00;95722.97;4950368;28;20519;-68
2021/12/30 00:23:57;;;;;;;3.05;1.80;;;10.60;91.40;;;9.11;100.00;95735.72;4965774;28;20043;-68
2021/12/30 00:26:23;;;;;;;1.67;1.40;;;10.70;91.40;;;9.13;100.00;95736.34;4952717;28;20113;-68
2021/12/30 00:28:49;;;;;;;2.00;1.50;;;10.70;91.30;;;9.14;100.00;95737.97;4937708;28;20035;-67
2021/12/30 00:31:15;;;;;;;2.53;1.63;;;10.70;91.40;;;9.16;100.00;95751.72;4972434;28;20123;-68
2021/12/30 00:33:41;;;;;;;2.95;1.38;;;10.70;91.60;;;9.17;100.00;95753.31;4994889;28;20043;-68
2021/12/30 00:36:08;;;;;;;1.85;1.50;;;10.80;91.60;;;9.17;100.00;95755.94;4959390;28;20043;-68
2021/12/30 00:38:38;;;;;;;1.88;1.55;;;10.70;91.70;;;9.18;100.00;95754.94;4987529;28;20478;-67
2021/12/30 00:41:04;;;;;;;2.70;1.70;;;10.70;91.70;;;9.20;100.00;95766.06;4970313;28;20038;-67
2021/12/30 00:43:29;;;;;;;2.35;1.58;;;10.70;91.80;;;9.20;100.00;95768.69;4988286;28;20042;-67
2021/12/30 00:45:55;;;;;;;1.42;1.20;;;10.70;91.70;;;9.21;100.00;95775.56;4954230;28;20042;-67
2021/12/30 00:48:21;;;;;;;1.70;1.50;;;10.70;91.70;;;9.23;100.00;95778.00;4950539;28;20103;-67
2021/12/30 00:50:47;;;;;;;1.52;1.30;;;10.80;91.60;;;9.26;100.00;95782.06;5004131;28;20049;-68
2021/12/30 00:53:13;;;;;;;1.67;1.40;;;10.80;91.50;;;9.26;100.00;95771.56;4960210;28;20148;-67
2021/12/30 00:55:39;;;;;;;1.50;1.40;;;10.80;91.70;;;9.27;100.00;95778.44;4952117;28;20087;-67
2021/12/30 00:58:05;;;;;;;1.60;1.45;;;10.80;91.90;;;9.28;100.00;95774.81;4980204;23;20196;-65
2021/12/30 01:00:31;;;;;;;1.85;1.70;;;10.90;92.00;;;9.28;100.00;95796.66;4929008;28;20036;-64
2021/12/30 01:02:57;;;;;;;1.73;1.35;;;10.80;91.90;;;9.31;100.00;95800.69;4937057;29;20059;-64
2021/12/30 01:05:23;;;;;;;1.52;1.27;;;10.90;92.00;;;9.31;100.00;95795.44;4917185;29;20130;-65
2021/12/30 01:07:49;;;;;;;1.90;1.10;;;10.90;91.90;;;9.31;100.00;95790.19;4918969;29;20036;-64
2021/12/30 01:10:17;;;;;;;1.60;1.10;;;11.00;92.00;;;9.34;100.00;95800.31;4917635;29;20048;-65
2021/12/30 01:12:43;;;;;;;1.63;1.10;;;10.90;92.00;;;9.33;100.00;95809.19;4934521;29;20028;-64
2021/12/30 01:15:14;;;;;;;1.55;1.00;;;11.00;92.00;;;9.35;100.00;95822.94;4917944;29;20047;-64
2021/12/30 01:18:19;;;;;;;1.50;1.00;;;10.90;92.00;;;9.35;100.00;95825.56;4934309;29;20040;-64
2021/12/30 01:20:38;;;;;;;1.40;1.05;;;11.00;91.90;;;9.36;100.00;95835.06;4928603;29;20038;-64
2021/12/30 01:23:04;;;;;;;1.33;0.93;;;11.00;91.90;;;9.37;100.00;95836.69;4934375;29;20072;-65
2021/12/30 01:25:29;;;;;;;1.63;1.00;;;11.00;92.00;;;9.40;100.00;95841.56;4934750;29;20040;-64
2021/12/30 01:27:55;;;;;;;2.13;1.30;;;11.10;91.80;;;9.39;100.00;95842.56;4901450;29;20051;-64
2021/12/30 01:30:21;;;;;;;1.40;1.10;;;11.10;91.80;;;9.40;100.00;95850.25;4886145;28;20063;-64
2021/12/30 01:32:46;;;;;;;1.15;1.05;;;11.10;92.00;;;9.42;100.00;95850.06;4934755;29;20036;-64
2021/12/30 01:35:22;;;;;;;1.20;1.00;;;11.10;91.80;;;9.44;100.00;95843.63;4914367;29;20144;-64
2021/12/30 01:37:48;;;;;;;1.20;0.90;;;11.10;91.80;;;9.43;100.00;95849.06;4927892;29;20056;-65
2021/12/30 01:40:16;;;;;;;1.52;0.90;;;11.10;91.70;;;9.47;100.00;95847.66;4917545;28;20046;-67
2021/12/30 01:42:42;;;;;;;2.08;0.90;;;11.10;91.70;;;9.48;100.00;95842.22;4935316;28;20500;-65
2021/12/30 01:45:09;;;;;;;1.83;1.10;;;11.10;91.50;;;9.50;100.00;95842.03;4917384;29;20036;-64
2021/12/30 01:47:36;;;;;;;1.15;1.00;;;11.10;91.40;;;9.54;100.00;95859.06;4913036;29;20147;-64
2021/12/30 01:50:01;;;;;;;1.52;1.10;;;11.10;91.60;;;9.55;100.00;95847.56;4923655;29;20482;-64
2021/12/30 01:52:27;;;;;;;1.20;1.05;;;11.20;91.60;;;9.58;100.00;95860.31;4917304;29;20098;-64
2021/12/30 01:54:53;;;;;;;1.77;1.08;;;11.20;91.70;;;9.59;100.00;95861.94;4933606;29;20043;-64
2021/12/30 01:57:19;;;;;;;1.00;0.80;;;11.20;91.50;;;9.60;100.00;95874.06;4916878;29;20079;-65
2021/12/30 01:59:44;;;;;;;1.00;0.90;;;11.20;91.40;;;9.60;100.00;95860.94;4902053;29;20043;-64
2021/12/30 02:02:10;;;;;;;1.27;1.00;;;11.20;91.50;;;9.61;100.00;95874.88;4917549;29;20074;-64
2021/12/30 02:04:36;;;;;;;1.40;0.90;;;11.20;91.50;;;9.61;100.00;95869.63;4908896;29;20073;-64
2021/12/30 02:07:02;;;;;;;1.02;0.90;;;11.20;91.60;;;9.62;100.00;95876.50;4917032;29;20481;-65
2021/12/30 02:09:30;;;;;;;0.80;0.80;;;11.20;91.60;;;9.62;100.00;95879.94;4913965;29;20087;-65
2021/12/30 02:11:56;;;;;;;1.13;0.88;;;11.20;91.50;;;9.65;100.00;95881.38;4928421;29;20595;-64
2021/12/30 02:14:21;;;;;;;1.13;0.90;;;11.30;91.30;;;9.65;100.00;95881.38;4940239;29;20032;-65
2021/12/30 02:16:47;;;;;;;0.80;0.80;;;11.30;91.40;;;9.65;100.00;95879.56;4898978;29;20123;-64
2021/12/30 02:19:14;;;;;;;0.90;0.80;;;11.30;91.30;;;9.66;100.00;95891.69;4930190;29;20036;-65
2021/12/30 02:21:39;;;;;;;0.70;0.65;;;11.30;91.40;;;9.68;100.00;95888.88;4917252;29;20047;-66
2021/12/30 02:24:05;;;;;;;0.77;0.50;;;11.30;91.30;;;9.69;100.00;95883.44;4917086;29;20076;-64
2021/12/30 02:26:31;;;;;;;0.88;0.60;;;11.30;91.30;;;9.74;100.00;95891.56;4912703;29;20047;-65
2021/12/30 02:28:57;;;;;;;0.55;0.50;;;11.40;91.20;;;9.76;100.00;95894.81;4931334;29;20429;-64
2021/12/30 02:31:28;;;;;;;0.50;0.40;;;11.40;91.10;;;9.77;100.00;95885.94;4912476;29;20028;-65
2021/12/30 02:33:55;;;;;;;0.60;0.43;;;11.40;91.00;;;9.80;100.00;95888.19;4916500;29;20040;-65
2021/12/30 02:36:30;;;;;;;1.30;0.40;;;11.50;90.90;;;9.80;100.00;95890.81;4931655;28;20032;-65
2021/12/30 02:38:56;;;;;;;1.45;0.50;;;11.40;90.90;;;9.80;100.00;95903.13;4932212;29;20027;-64
2021/12/30 02:41:21;;;;;;;0.22;0.22;;;11.40;91.00;;;9.82;100.00;95915.06;4916906;29;20243;-64
2021/12/30 02:43:48;;;;;;;0.40;0.40;;;11.40;91.00;;;9.81;100.00;95918.69;4933537;29;20096;-64
2021/12/30 02:46:15;;;;;;;0.47;0.40;;;11.40;90.90;;;9.80;100.00;95919.72;4931324;28;20384;-64
2021/12/30 02:48:41;;;;;;;0.50;0.40;;;11.40;90.90;;;9.80;100.00;95916.28;4933950;28;20031;-64
2021/12/30 02:51:10;;;;;;;0.47;0.25;;;11.40;91.00;;;9.80;100.00;95924.16;4932458;29;20091;-64
2021/12/30 02:53:36;;;;;;;0.50;0.30;;;11.40;90.70;;;9.78;100.00;95932.22;4932631;29;20094;-64
2021/12/30 02:56:03;;;;;;;0.63;0.30;;;11.30;90.90;;;9.78;100.00;95934.03;4932086;29;20492;-64
2021/12/30 02:58:28;;;;;;;0.75;0.35;;;11.40;90.80;;;9.78;100.00;95945.34;4910912;29;20032;-64
2021/12/30 03:01:23;;;;;;;0.20;0.20;;;11.40;90.80;;;9.79;100.00;95946.16;4906100;29;20063;-64
2021/12/30 03:03:49;;;;;;;0.73;0.25;;;11.40;90.70;;;9.78;100.00;95958.50;4896890;29;20032;-64
2021/12/30 03:06:15;;;;;;;0.30;0.30;;;11.50;90.60;;;9.79;100.00;95968.00;4914684;28;20043;-65
2021/12/30 03:08:41;;;;;;;0.20;0.20;;;11.40;90.60;;;9.78;100.00;95966.38;4933383;28;20102;-64
2021/12/30 03:11:07;;;;;;;0.20;0.20;;;11.40;90.70;;;9.79;100.00;95970.63;4916584;29;20032;-64
2021/12/30 03:13:34;;;;;;;0.28;0.25;;;11.40;90.60;;;9.81;100.00;95973.06;4913170;29;20508;-65
2021/12/30 03:16:06;;;;;;;0.68;0.28;;;11.40;90.80;;;9.82;100.00;95972.88;4927339;29;20027;-64
2021/12/30 03:18:33;;;;;;;0.50;0.30;;;11.40;90.60;;;9.82;100.00;95987.81;4931204;29;20032;-64
2021/12/30 03:20:59;;;;;;;0.43;0.22;;;11.40;90.70;;;9.82;100.00;95999.13;4913640;29;20028;-64
2021/12/30 03:23:25;;;;;;;0.60;0.25;;;11.40;90.60;;;9.84;100.00;95996.31;4941554;29;20034;-64
2021/12/30 03:25:51;;;;;;;1.15;0.50;;;11.40;90.60;;;9.85;100.00;96003.19;4915623;29;20504;-64
2021/12/30 03:28:16;;;;;;;0.32;0.30;;;11.40;90.70;;;9.85;100.00;95994.50;4932427;28;20130;-65
2021/12/30 03:30:42;;;;;;;0.30;0.30;;;11.40;90.50;;;9.87;100.00;95995.13;4915915;29;20539;-65
2021/12/30 03:33:08;;;;;;;0.98;0.40;;;11.40;90.50;;;9.88;100.00;95994.13;4930915;29;20527;-66
2021/12/30 03:35:34;;;;;;;0.88;0.40;;;11.50;90.40;;;9.87;100.00;95995.94;4915737;29;20047;-65
2021/12/30 03:37:59;;;;;;;1.05;0.35;;;11.50;90.30;;;9.90;100.00;95990.31;4915830;29;20503;-64
2021/12/30 03:40:25;;;;;;;1.00;0.30;;;11.50;90.30;;;9.92;100.00;95998.81;4918901;29;20416;-64
2021/12/30 03:42:51;;;;;;;1.63;0.40;;;11.50;90.40;;;9.94;100.00;96003.88;4897115;29;20031;-64
2021/12/30 03:45:17;;;;;;;3.90;2.53;;;11.50;90.50;;;9.95;100.00;96002.88;4925004;29;20046;-64
2021/12/30 03:47:45;;;;;;;3.95;2.40;;;11.50;90.20;;;9.96;100.00;96004.53;4918376;29;20039;-65
2021/12/30 03:50:19;;;;;;;3.70;2.17;;;11.60;90.20;;;9.96;100.00;96009.78;4916173;29;20114;-65
2021/12/30 03:52:46;;;;;;;1.80;0.50;;;11.50;90.40;;;9.96;100.00;96022.94;4916374;29;20122;-64
2021/12/30 03:55:12;;;;;;;0.77;0.40;;;11.60;90.30;;;9.96;100.00;96030.81;4931189;29;20471;-65
2021/12/30 03:57:38;;;;;;;1.20;0.30;;;11.60;90.30;;;9.93;100.00;96036.41;4915311;29;20036;-65
2021/12/30 04:00:05;;;;;;;0.82;0.40;;;11.50;90.20;;;9.94;100.00;96052.00;4929943;29;20044;-64
2021/12/30 04:02:30;;;;;;;1.48;0.50;;;11.50;90.40;;;9.93;100.00;96052.19;4899581;28;20067;-66
2021/12/30 04:04:56;;;;;;;1.35;0.45;;;11.40;90.50;;;9.91;100.00;96059.44;4898017;29;20099;-64
2021/12/30 04:07:22;;;;;;;2.60;1.65;;;11.40;90.60;;;9.91;100.00;96067.31;4913075;29;20428;-65
2021/12/30 04:09:47;;;;;;;2.33;1.65;;;11.50;90.50;;;9.90;100.00;96063.06;4909413;29;20044;-65
2021/12/30 04:12:13;;;;;;;0.93;0.52;;;11.50;90.70;;;9.89;100.00;96066.69;4895702;29;20571;-65
2021/12/30 04:14:39;;;;;;;7.00;3.47;;;11.50;90.60;;;9.90;100.00;96068.31;4915808;29;20096;-64
2021/12/30 04:17:05;;;;;;;2.53;0.93;;;11.50;90.60;;;9.90;100.00;96089.34;4915055;28;20044;-65
2021/12/30 04:19:31;;;;;;;4.35;3.25;;;11.50;90.80;;;9.92;100.00;96082.09;4893516;29;20031;-65
2021/12/30 04:21:58;;;;;;;8.82;5.15;;;11.50;90.70;;;9.92;100.00;96089.97;4911401;29;20074;-64
2021/12/30 04:24:24;;;;;;;4.07;2.42;;;11.50;90.60;;;9.93;100.00;96094.22;4913548;29;20091;-65
2021/12/30 04:26:50;;;;;;;3.03;2.42;;;11.50;90.50;;;9.93;100.00;96095.03;4921174;29;20052;-65
2021/12/30 04:29:19;;;;;;;3.08;1.35;;;11.60;90.50;;;9.95;100.00;96105.34;4912025;29;20108;-65
2021/12/30 04:31:45;;;;;;;1.20;0.60;;;11.60;90.30;;;9.94;100.00;96109.78;4914939;28;20043;-65
2021/12/30 04:34:11;;;;;;;1.08;0.68;;;11.60;90.30;;;9.95;100.00;96107.97;4907921;29;20048;-64
2021/12/30 04:36:37;;;;;;;0.93;0.50;;;11.60;90.30;;;9.97;100.00;96111.28;4913643;29;20381;-65
2021/12/30 04:39:03;;;;;;;1.02;0.50;;;11.60;90.30;;;9.96;100.00;96120.16;4929985;29;20032;-67
2021/12/30 04:41:29;;;;;;;1.40;0.52;;;11.60;90.00;;;9.95;100.00;96116.69;4914451;29;20067;-70
2021/12/30 04:43:55;;;;;;;1.67;0.65;;;11.60;90.00;;;9.96;100.00;96122.78;4893692;29;20076;-67
2021/12/30 04:46:20;;;;;;;1.60;0.73;;;11.60;90.10;;;9.95;100.00;96127.19;4909133;29;20575;-66
2021/12/30 04:48:47;;;;;;;2.50;0.60;;;11.60;90.20;;;9.94;100.00;96138.69;4913992;29;20032;-68
2021/12/30 04:51:13;;;;;;;0.63;0.40;;;11.60;90.10;;;9.94;100.00;96143.13;4932670;29;20104;-65
2021/12/30 04:53:39;;;;;;;1.92;0.40;;;11.60;90.10;;;9.94;100.00;96138.69;4928777;29;20032;-65
2021/12/30 04:56:05;;;;;;;0.60;0.40;;;11.50;90.20;;;9.94;100.00;96143.13;4911116;29;20043;-65
2021/12/30 04:58:30;;;;;;;0.32;0.30;;;11.60;90.20;;;9.95;100.00;96142.13;4909875;29;20028;-65
2021/12/30 05:00:56;;;;;;;0.80;0.43;;;11.60;90.10;;;9.95;100.00;96155.28;4901854;29;20384;-65
2021/12/30 05:03:22;;;;;;;0.30;0.30;;;11.60;90.00;;;9.95;100.00;96153.47;4929689;29;20043;-64
2021/12/30 05:05:51;;;;;;;0.63;0.38;;;11.60;90.00;;;9.97;100.00;96166.44;4916136;29;20155;-65
2021/12/30 05:08:19;;;;;;;3.92;3.03;;;11.60;89.80;;;9.96;100.00;96170.06;4911959;29;20036;-64
2021/12/30 05:10:45;;;;;;;3.33;2.35;;;11.60;89.90;;;9.99;100.00;96177.59;4911270;29;20165;-65
2021/12/30 05:13:11;;;;;;;3.17;1.45;;;11.60;89.80;;;10.01;100.00;96170.34;4901763;29;20039;-65
2021/12/30 05:15:37;;;;;;;3.75;2.80;;;11.60;89.80;;;10.01;100.00;96175.59;4900178;29;20036;-65
2021/12/30 05:18:04;;;;;;;5.13;3.10;;;11.70;89.70;;;10.03;100.00;96176.22;4915153;29;20043;-65
2021/12/30 05:20:30;;;;;;;2.22;1.70;;;11.70;89.50;;;10.04;100.00;96183.09;4916023;29;20046;-65
2021/12/30 05:22:55;;;;;;;1.45;0.50;;;11.60;89.50;;;10.05;100.00;96193.44;4901514;29;20452;-64
2021/12/30 05:25:22;;;;;;;0.55;0.47;;;11.60;89.40;;;10.04;100.00;96188.34;4916574;29;20237;-64
2021/12/30 05:27:48;;;;;;;0.50;0.40;;;11.70;89.40;;;10.03;100.00;96195.44;4932802;29;20043;-64
2021/12/30 05:30:14;;;;;;;1.05;0.38;;;11.70;89.30;;;10.04;100.00;96202.31;4916812;29;20044;-64
2021/12/30 05:32:40;;;;;;;0.47;0.30;;;11.70;89.20;;;10.06;100.00;96210.00;4900523;29;20123;-64
2021/12/30 05:35:07;;;;;;;0.55;0.30;;;11.70;89.30;;;10.06;100.00;96210.81;4927739;29;20039;-64
2021/12/30 05:37:33;;;;;;;1.48;0.50;;;11.70;89.30;;;10.06;100.00;96215.28;4929105;29;20047;-64
2021/12/30 05:39:59;;;;;;;0.85;0.50;;;11.70;89.20;;;10.08;100.00;96215.91;4929229;29;20040;-65
2021/12/30 05:42:25;;;;;;;1.00;0.40;;;11.70;89.20;;;10.07;100.00;96214.28;4918965;28;20047;-64
2021/12/30 05:44:54;;;;;;;0.50;0.38;;;11.80;89.20;;;10.09;100.00;96217.53;4900444;29;20416;-64
2021/12/30 05:47:20;;;;;;;0.90;0.30;;;11.70;89.00;;;10.10;100.00;96216.53;4916906;29;20028;-64
2021/12/30 05:49:46;;;;;;;0.57;0.40;;;11.80;89.10;;;10.11;100.00;96212.91;4905905;29;20710;-65
2021/12/30 05:52:12;;;;;;;0.57;0.20;;;11.80;89.10;;;10.12;100.00;96214.53;4929362;29;20048;-73
2021/12/30 05:54:39;;;;;;;1.85;0.32;;;11.80;88.90;;;10.13;100.00;96216.16;4894244;29;20063;-65
2021/12/30 05:57:05;;;;;;;2.17;0.50;;;11.90;88.80;;;10.13;100.00;96226.69;4914172;29;20542;-65
2021/12/30 05:59:31;;;;;;;0.52;0.40;;;11.90;88.70;;;10.13;100.00;96243.25;4915390;29;20067;-70
2021/12/30 06:01:56;;;;;;;1.05;0.40;;;11.90;88.70;;;10.13;100.00;96243.25;4931795;29;20050;-65
2021/12/30 06:04:22;;;;;;;0.43;0.30;;;11.90;88.70;;;10.14;100.00;96236.19;4933189;29;20031;-66
2021/12/30 06:06:48;;;;;;;1.13;0.40;;;11.90;88.60;;;10.14;100.00;96231.75;4932481;29;20035;-65
2021/12/30 06:09:14;;;;;;;1.13;0.50;;;11.80;88.80;;;10.17;100.00;96233.19;4932834;29;20024;-65
2021/12/30 06:11:39;;;;;;;2.60;0.55;;;11.90;88.80;;;10.17;100.00;96243.69;4948289;29;20032;-66
2021/12/30 06:14:05;;;;;;;1.40;0.80;;;11.90;88.70;;;10.18;100.00;96255.84;4912560;29;20346;-65
2021/12/30 06:16:33;;;;;;;1.50;0.82;;;11.90;88.70;;;10.20;100.00;96253.88;4912233;29;20028;-65
2021/12/30 06:18:59;;;;;;;3.83;1.08;;;12.00;88.50;;;10.21;100.00;96254.72;4912646;29;20028;-65
2021/12/30 06:21:25;;;;;;;1.55;0.77;;;12.00;88.40;;;10.20;100.00;96259.13;4926816;29;20023;-65
2021/12/30 06:23:51;;;;;;;0.90;0.60;;;12.00;88.40;;;10.22;100.00;96257.16;4916461;29;20500;-65
2021/12/30 06:26:17;;;;;;;2.00;1.08;;;11.90;88.50;;;10.22;100.00;96256.34;4907835;29;20083;-65
2021/12/30 06:28:42;;;;;;;6.60;4.80;;;11.90;88.80;;;10.23;100.00;96258.81;4903167;29;20052;-65
2021/12/30 06:31:08;;;;;;;3.05;1.30;;;12.00;88.90;;;10.25;100.00;96258.63;4911333;29;20028;-65
2021/12/30 06:33:34;;;;;;;1.35;0.80;;;11.90;88.80;;;10.25;100.00;96267.31;4914456;29;20055;-66
2021/12/30 06:36:00;;;;;;;1.48;0.70;;;11.90;88.80;;;10.27;100.00;96264.50;4897382;29;20059;-65
2021/12/30 06:38:25;;;;;;;0.82;0.50;;;12.00;88.80;;;10.27;100.00;96270.56;4896894;29;20047;-65
2021/12/30 06:40:51;;;;;;;1.40;0.50;;;12.00;88.80;;;10.28;100.00;96264.31;4897174;29;20053;-65
2021/12/30 06:43:18;;;;;;;2.13;0.50;;;12.00;89.10;;;10.29;100.00;96275.66;4929571;29;20044;-65
2021/12/30 06:45:44;;;;;;;1.02;0.50;;;12.00;89.40;;;10.29;100.00;96276.47;4908933;29;20051;-65
2021/12/30 06:48:14;;;;;;;1.73;0.70;;;12.10;89.30;;;10.32;100.00;96283.97;4912988;29;20111;-65
2021/12/30 06:50:41;;;;;;;2.50;0.57;;;12.10;89.40;;;10.32;100.00;96283.97;4912095;29;20039;-65
2021/12/30 06:53:06;;;;;;;1.50;0.65;;;12.00;89.50;;;10.34;100.00;96286.44;4914438;29;20047;-65
2021/12/30 06:55:32;;;;;;;1.13;0.80;;;12.10;89.40;;;10.34;100.00;96284.63;4915303;29;20087;-65
2021/12/30 06:57:58;;;;;;;0.90;0.50;;;12.10;89.30;;;10.35;100.00;96294.13;4915483;29;20083;-66
2021/12/30 07:00:24;;;;;;;1.25;0.60;;;12.10;89.40;;;10.37;100.00;96284.25;4931049;29;20083;-66
2021/12/30 07:02:49;;;;;;;1.10;0.50;;;12.10;89.20;;;10.35;100.00;96283.63;4947403;29;20048;-65
2021/12/30 07:05:15;;;;;;;2.15;0.55;;;12.10;89.30;;;10.37;100.00;96286.06;4928820;29;20067;-65
2021/12/30 07:07:43;;;;;;;0.70;0.43;;;12.10;89.20;;;10.38;100.00;96288.50;4896586;29;20032;-65
2021/12/30 07:10:10;;;;;;;2.05;0.88;;;12.10;89.20;;;10.38;100.00;96293.75;4912607;29;20087;-66
2021/12/30 07:12:36;;;;;;;1.70;0.68;;;12.20;89.00;;;10.39;100.00;96295.38;4896329;29;20535;-67
2021/12/30 07:15:04;;;;;;;2.35;0.65;;;12.10;89.00;;;10.38;100.00;96285.88;4906497;29;20127;-66
2021/12/30 07:17:31;;;;;;;4.15;0.80;;;12.10;89.20;;;10.39;100.00;96298.03;4930261;29;20129;-67
2021/12/30 07:19:57;;;;;;;2.25;0.90;;;12.00;89.30;;;10.39;100.00;96303.28;4929708;29;20044;-65
2021/12/30 07:22:24;;;;;;;2.85;0.60;;;12.10;89.30;;;10.40;100.00;96304.09;4909651;29;20032;-65
2021/12/30 07:24:49;;;;;;;1.88;0.70;;;12.10;89.10;;;10.40;100.00;96302.28;4910627;29;20044;-65
2021/12/30 07:27:15;;;;;;;0.60;0.57;;;12.10;89.20;;;10.41;100.00;96306.56;4913957;29;20064;-66
2021/12/30 07:29:41;;;;;;;3.20;1.55;;;12.10;89.30;;;10.42;100.00;96304.75;4911655;29;20044;-66
2021/12/30 07:32:06;;;;;;;3.10;1.45;;;12.10;89.10;;;10.43;100.00;96315.09;4920468;29;20102;-66
2021/12/30 07:34:32;;;;;;;6.28;2.78;;;12.10;89.10;;;10.45;100.00;96309.66;4930174;29;20110;-69
2021/12/30 07:36:58;;;;;;;7.15;4.15;;;12.10;89.10;;;10.47;100.00;96312.09;4930777;29;20519;-70
2021/12/30 07:39:24;;;;;;;6.07;4.50;;;12.10;89.20;;;10.48;100.00;96308.47;4919229;29;20694;-68
2021/12/30 07:41:49;;;;;;;2.95;2.25;;;12.10;89.20;;;10.48;100.00;96308.47;4896255;29;20067;-68
2021/12/30 07:44:15;;;;;;;1.80;1.42;;;12.10;89.30;;;10.49;100.00;96310.91;4911499;29;20067;-65
2021/12/30 07:46:41;;;;;;;1.33;0.70;;;12.10;89.20;;;10.50;100.00;96311.72;4929939;28;20464;-66
2021/12/30 07:49:07;;;;;;;2.47;0.88;;;12.10;89.30;;;10.52;100.00;96309.72;4901736;29;20128;-65
2021/12/30 07:51:32;;;;;;;2.67;1.00;;;12.10;89.40;;;10.54;100.00;96318.25;4896233;29;20044;-68
2021/12/30 07:53:58;;;;;;;1.13;0.77;;;12.10;89.40;;;10.54;100.00;96305.09;4924073;29;20039;-66
2021/12/30 07:56:24;;;;;;;1.98;0.80;;;12.20;89.50;;;10.55;100.00;96309.34;4918635;29;20036;-65
2021/12/30 07:58:49;;;;;;;2.20;0.90;;;12.20;89.40;;;10.57;100.00;96304.72;4919412;29;20024;-66
2021/12/30 08:01:15;;;;;;;0.93;0.63;;;12.20;89.20;;;10.58;100.00;96314.25;4925137;28;20107;-66
2021/12/30 08:03:41;;;;;;;1.38;0.80;;;12.20;89.30;;;10.59;100.00;96307.97;4912665;29;20404;-68
2021/12/30 08:06:08;;;;;;;0.70;0.70;;;12.20;89.30;;;10.60;100.00;96313.06;4907200;29;20127;-69
2021/12/30 08:08:33;;;;;;;1.38;0.95;;;12.20;89.20;;;10.63;100.00;96317.13;4879822;29;20064;-69
2021/12/30 08:10:59;;;;;;;1.65;0.98;;;12.30;89.30;;;10.61;100.00;96314.69;4918964;29;20043;-68
2021/12/30 08:13:26;;;;;;;1.92;1.10;;;12.30;89.20;;;10.65;100.00;96318.59;4914872;29;20380;-67
2021/12/30 08:15:52;;;;;;;3.33;1.20;;;12.40;89.10;;;10.68;100.00;96317.41;4910875;29;20135;-68
2021/12/30 08:18:18;;;;;;;1.35;1.08;;;12.40;89.10;;;10.69;100.00;96321.69;4904263;29;20059;-66
2021/12/30 08:20:44;;;;;;;2.25;1.00;;;12.40;89.10;;;10.71;100.00;96333.66;4914509;29;20480;-68
2021/12/30 08:23:09;;;;;;;1.48;0.90;;;12.40;89.30;;;10.71;100.00;96331.03;4925254;29;20052;-68
2021/12/30 08:25:35;;;;;;;1.80;1.15;;;12.40;89.20;;;10.74;100.00;96332.47;4913895;29;20431;-68
2021/12/30 08:28:01;;;;;;;2.80;1.83;;;12.50;89.10;;;10.76;100.00;96325.19;4910698;29;20103;-68
2021/12/30 08:30:26;;;;;;;1.95;1.30;;;12.50;88.90;;;10.76;100.00;96325.19;4881689;28;20516;-68
2021/12/30 08:32:52;;;;;;;1.73;0.90;;;12.40;89.00;;;10.78;100.00;96335.53;4928829;29;20040;-68
2021/12/30 08:35:21;;;;;;;1.00;0.88;;;12.50;89.10;;;10.79;100.00;96330.09;4914036;29;20506;-68
2021/12/30 08:37:46;;;;;;;0.52;0.40;;;12.50;88.90;;;10.82;100.00;96327.09;4914721;29;20040;-71
2021/12/30 08:40:13;;;;;;;1.20;0.75;;;12.60;88.70;;;10.83;100.00;96327.91;4899135;29;20457;-69
2021/12/30 08:42:39;;;;;;;1.38;0.70;;;12.60;88.70;;;10.86;100.00;96325.72;4895831;28;20492;-70
2021/12/30 08:45:05;;;;;;;1.00;0.40;;;12.60;88.80;;;10.87;100.00;96322.09;4884637;29;20047;-71
2021/12/30 08:47:31;;;;;;;1.50;0.40;;;12.60;88.60;;;10.90;100.00;96316.47;4899423;29;20078;-72
2021/12/30 08:49:57;;;;;;;0.57;0.40;;;12.60;88.70;;;10.90;100.00;96313.84;4904082;29;20052;-72
2021/12/30 08:52:25;;;;;;;0.95;0.50;;;12.60;88.50;;;10.94;100.00;96316.91;4917540;29;20251;-72
2021/12/30 08:54:51;;;;;;;0.80;0.45;;;12.60;88.50;;;10.98;100.00;96320.78;4917944;29;20043;-73
2021/12/30 08:57:18;;;;;;;0.50;0.40;;;12.70;88.30;;;10.99;100.00;96325.88;4925003;29;20115;-70
2021/12/30 08:59:44;;;;;;;2.08;0.50;;;12.70;88.10;;;11.01;100.00;96331.75;4905272;29;20099;-71
2021/12/30 09:02:10;;;;;;;1.08;0.40;;;12.70;88.10;;;11.02;100.00;96338.66;4934019;29;20043;-72
2021/12/30 09:04:36;;;;;;;0.55;0.38;;;12.70;88.00;;;11.05;100.00;96342.72;4913622;29;20040;-72
2021/12/30 09:07:02;;;;;;;0.55;0.40;;;12.70;87.90;;;11.07;100.00;96348.63;4914117;29;20055;-70
2021/12/30 09:09:28;;;;;;;0.90;0.50;;;12.70;87.90;;;11.10;100.00;96344.84;4907183;29;20024;-68
2021/12/30 09:11:54;;;;;;;1.42;0.40;;;12.70;87.70;;;11.12;100.00;96343.63;4917764;29;20048;-69
2021/12/30 09:14:19;;;;;;;0.95;0.50;;;12.70;87.70;;;11.13;100.00;96336.56;4929627;29;20038;-68
2021/12/30 09:16:45;;;;;;;0.32;0.32;;;12.70;87.50;;;11.16;100.00;96344.06;4914517;29;20071;-70
2021/12/30 09:19:11;;;;;;;0.80;0.40;;;12.70;87.60;;;11.19;100.00;96343.69;4924567;29;20039;-69
2021/12/30 09:21:40;;;;;;;1.48;0.40;;;12.80;87.50;;;11.19;100.00;96347.16;4920944;29;20356;-70
2021/12/30 09:24:06;;;;;;;2.05;0.55;;;12.80;87.40;;;11.21;100.00;96352.22;4901465;29;20043;-70
2021/12/30 09:26:32;;;;;;;1.25;0.50;;;12.80;87.50;;;11.22;100.00;96348.59;4894050;28;20043;-66
2021/12/30 09:28:58;;;;;;;0.88;0.35;;;12.80;87.50;;;11.24;100.00;96359.75;4912024;29;20051;-67
2021/12/30 09:31:23;;;;;;;1.48;0.60;;;12.80;87.50;;;11.23;100.00;96360.75;4908966;29;20063;-68
2021/12/30 09:33:49;;;;;;;0.95;0.50;;;12.80;87.30;;;11.24;100.00;96367.66;4941591;29;20154;-70
2021/12/30 09:36:15;;;;;;;0.80;0.43;;;12.90;87.40;;;11.25;100.00;96364.00;4929946;29;20180;-69
2021/12/30 09:38:40;;;;;;;0.73;0.35;;;12.90;87.40;;;11.27;100.00;96359.38;4913615;29;20091;-68
2021/12/30 09:41:06;;;;;;;0.88;0.40;;;12.80;87.00;;;11.27;100.00;96356.75;4905242;29;20031;-70
2021/12/30 09:43:34;;;;;;;1.63;0.50;;;13.00;87.00;;;11.31;100.00;96353.53;4911209;29;20114;-69
2021/12/30 09:45:59;;;;;;;1.08;0.40;;;13.00;86.80;;;11.36;100.00;96355.63;4920486;29;20473;-69
2021/12/30 09:48:25;;;;;;;0.90;0.60;;;13.00;86.60;;;11.39;100.00;96351.81;4916932;29;20063;-68
2021/12/30 09:50:53;;;;;;;2.10;0.50;;;13.10;86.40;;;11.43;100.00;96355.69;4917530;29;20077;-70
2021/12/30 09:53:23;;;;;;;0.88;0.50;;;13.10;86.20;;;11.45;100.00;96359.78;4933114;29;20039;-69
2021/12/30 09:55:51;;;;;;;1.15;0.50;;;13.20;86.10;;;11.49;100.00;96355.75;4884849;29;20056;-70
2021/12/30 09:58:17;;;;;;;0.70;0.47;;;13.30;85.90;;;11.56;100.00;96351.38;4910314;29;20050;-68
2021/12/30 10:00:43;;;;;;;0.90;0.45;;;13.40;85.70;;;11.59;100.00;96345.72;4916488;29;20027;-69
2021/12/30 10:03:08;;;;;;;0.93;0.60;;;13.30;85.50;;;11.62;100.00;96342.72;4926766;29;20099;-69
2021/12/30 10:05:38;;;;;;;1.30;0.60;;;13.30;85.80;;;11.69;100.00;96349.84;4915468;29;20036;-68
2021/12/30 10:08:09;;;;;;;0.85;0.57;;;13.50;85.80;;;11.73;100.00;96344.00;4914948;29;20028;-69
2021/12/30 10:10:36;;;;;;;0.60;0.40;;;13.50;85.70;;;11.76;100.00;96340.16;4911104;29;20453;-69
2021/12/30 10:13:19;;;;;;;1.02;0.60;;;13.50;85.90;;;11.80;100.00;96347.56;4916511;29;20103;-69